createdAt,value
2022-11-15T00:57:27.510Z,2.40
2022-11-15T01:07:56.443Z,2.15
2022-11-15T01:18:30.250Z,2.53
2022-11-15T01:29:04.334Z,1.77
2022-11-15T01:39:33.282Z,2.10
2022-11-15T01:50:07.447Z,2.60
2022-11-15T02:00:42.107Z,2.28
2022-11-15T02:11:28.535Z,1.40
2022-11-15T03:00:14.132Z,1.95
2022-11-15T03:32:20.041Z,1.67
2022-11-15T05:36:38.868Z,2.35
2022-11-15T07:24:56.054Z,1.92
2022-11-15T08:50:09.926Z,1.92
2022-11-15T09:25:25.088Z,1.40
2022-11-15T09:47:42.377Z,1.40
2022-11-15T10:11:38.944Z,1.50
2022-11-15T10:22:30.046Z,1.40
2022-11-15T10:32:42.084Z,1.92
2022-11-15T10:42:49.028Z,1.55
2022-11-15T10:52:57.748Z,3.10
2022-11-15T11:03:07.771Z,2.50
2022-11-15T11:13:28.284Z,1.35
2022-11-15T11:23:48.877Z,1.75
2022-11-15T11:34:06.492Z,1.40
2022-11-15T11:44:31.033Z,1.20
2022-11-15T11:54:46.657Z,1.20
2022-11-15T12:04:57.182Z,1.00
2022-11-15T12:15:14.619Z,1.10
2022-11-15T12:25:27.371Z,1.58
2022-11-15T12:35:40.599Z,1.25
2022-11-15T12:45:48.726Z,1.20
2022-11-15T12:56:24.174Z,1.25
2022-11-15T13:06:44.333Z,1.40
2022-11-15T13:17:00.808Z,1.50
2022-11-15T13:27:19.638Z,1.60
2022-11-15T13:37:35.585Z,1.05
2022-11-15T13:47:42.510Z,1.33
2022-11-15T13:57:53.781Z,1.40
2022-11-15T14:08:04.856Z,1.63
2022-11-15T14:18:40.880Z,1.38
2022-11-15T14:28:50.256Z,1.40
2022-11-15T14:38:57.642Z,1.50
2022-11-15T14:49:06.317Z,1.20
2022-11-15T14:59:13.335Z,1.45
2022-11-15T15:09:22.700Z,1.02
2022-11-15T15:19:30.165Z,1.70
2022-11-15T15:29:38.861Z,1.60
2022-11-15T15:39:45.896Z,2.92
2022-11-15T15:49:54.960Z,2.30
2022-11-15T16:00:02.068Z,7.18
2022-11-15T16:10:24.250Z,2.92
2022-11-15T16:20:37.664Z,4.70
2022-11-15T16:30:48.188Z,4.07
2022-11-15T16:40:56.942Z,2.40
2022-11-15T16:51:06.705Z,3.90
2022-11-15T17:01:21.769Z,4.78
2022-11-15T17:11:30.382Z,2.33
2022-11-15T17:21:37.923Z,3.08
2022-11-15T17:31:46.675Z,3.38
2022-11-15T17:41:53.884Z,4.25
2022-11-15T17:52:02.466Z,3.65
2022-11-15T18:02:13.219Z,5.30
2022-11-15T18:12:22.043Z,4.60
2022-11-15T18:22:31.794Z,4.28
2022-11-15T18:32:40.401Z,3.35
2022-11-15T18:42:47.513Z,3.30
2022-11-15T18:52:56.078Z,14.98
2022-11-15T19:03:03.210Z,21.58
2022-11-15T19:13:11.909Z,16.15
2022-11-15T19:23:19.444Z,11.43
2022-11-15T19:33:28.070Z,7.55
2022-11-15T19:43:35.564Z,5.72
2022-11-15T19:53:44.387Z,5.70
2022-11-15T20:03:52.171Z,3.95
2022-11-15T20:14:03.611Z,4.38
2022-11-15T20:24:11.833Z,4.10
2022-11-15T20:34:21.163Z,1.58
2022-11-15T20:44:28.284Z,1.88
2022-11-15T20:54:37.034Z,1.75
2022-11-15T21:04:44.081Z,1.50
2022-11-15T21:14:53.927Z,1.75
2022-11-15T21:25:01.474Z,1.38
2022-11-15T21:35:10.755Z,1.30
2022-11-15T21:45:17.872Z,1.35
2022-11-15T21:55:26.646Z,2.65
2022-11-15T22:05:33.773Z,1.23
2022-11-15T22:15:42.589Z,1.20
2022-11-15T22:25:50.233Z,1.33
2022-11-15T22:35:58.940Z,1.25
2022-11-15T22:46:07.438Z,1.27
2022-11-15T22:56:20.159Z,1.08
2022-11-15T23:06:27.651Z,1.00
2022-11-15T23:16:39.206Z,1.00
2022-11-15T23:26:47.801Z,1.13
2022-11-15T23:36:56.553Z,1.75
2022-11-15T23:47:03.766Z,1.05
2022-11-15T23:57:13.106Z,1.55
